Terminal Aerodrome Forecast
Issued by NWS Brownsville, TX

Home | Current Version | Previous Version | Text Only | Print | Product List | Glossary On
Versions: 1 2 3 4 5 6 7 8 9 10 11 12 13
000
FTUS44 KBRO 041720
TAFHRL
TAF
KHRL 041720Z 0418/0518 14015G22KT P6SM FEW035 OVC100
     FM050200 12010KT P6SM BKN040
     FM050700 13009KT P6SM OVC019
     FM051200 12009KT P6SM OVC015
     FM051400 15016KT P6SM OVC025=

USA.gov is the U.S. government's official web portal to all federal, state and local government web resources and services.